Time;durP1;ratioP1;P1;durP2;ratioP2;P2;SDS_P1;SDS_P2;PMS_P1;PMS_P2;Temp;Humidity;BMP_temperature;BMP_pressure;BME280_temperature;BME280_humidity;BME280_pressure;Samples;Min_cycle;Max_cycle;Signal;HPM_P1;HPM_P2
2022/06/21 00:02:31;;;;;;;0.50;0.50;;;12.00;99.90;;;;;;5131897;28;20987;-67
2022/06/21 00:05:25;;;;;;;0.97;0.90;;;12.00;99.90;;;;;;5131286;28;20563;-68
2022/06/21 00:08:16;;;;;;;0.50;0.50;;;11.90;99.90;;;;;;5131866;28;20432;-69
2022/06/21 00:11:13;;;;;;;0.50;0.50;;;11.80;99.90;;;;;;5131797;28;20413;-68
2022/06/21 00:14:02;;;;;;;1.27;1.07;;;11.80;99.90;;;;;;5132440;28;20460;-66
2022/06/21 00:16:51;;;;;;;0.50;0.50;;;11.80;99.90;;;;;;5130406;28;20417;-67
2022/06/21 00:19:41;;;;;;;0.50;0.50;;;11.80;99.90;;;;;;5131092;28;20817;-67
2022/06/21 00:22:29;;;;;;;1.43;1.33;;;11.70;99.90;;;;;;5132428;28;21025;-67
2022/06/21 00:25:20;;;;;;;0.63;0.63;;;11.70;99.90;;;;;;5131679;28;20420;-66
2022/06/21 00:28:08;;;;;;;0.90;0.90;;;11.70;99.90;;;;;;5130920;28;20461;-66
2022/06/21 00:30:57;;;;;;;0.97;0.90;;;11.70;99.90;;;;;;5131005;28;20800;-67
2022/06/21 00:33:46;;;;;;;1.23;1.10;;;11.70;99.90;;;;;;5133226;27;20534;-66
2022/06/21 00:36:36;;;;;;;1.53;1.30;;;11.70;99.90;;;;;;5136083;27;20489;-70
2022/06/21 00:39:24;;;;;;;1.37;1.23;;;11.80;99.90;;;;;;5135255;27;20443;-70
2022/06/21 00:42:19;;;;;;;0.73;0.73;;;11.80;99.90;;;;;;5134603;27;20796;-68
2022/06/21 00:45:13;;;;;;;0.63;0.60;;;11.80;99.90;;;;;;5134583;27;20511;-67
2022/06/21 00:48:11;;;;;;;0.50;0.50;;;11.80;99.90;;;;;;5135247;27;20544;-68
2022/06/21 00:51:07;;;;;;;2.17;1.40;;;11.80;99.90;;;;;;5135807;27;20415;-68
2022/06/21 00:53:59;;;;;;;1.13;1.00;;;11.80;99.90;;;;;;5136852;27;21024;-69
2022/06/21 00:56:53;;;;;;;0.50;0.50;;;11.80;99.90;;;;;;5139023;27;20924;-68
2022/06/21 00:59:41;;;;;;;0.83;0.83;;;11.80;99.90;;;;;;5135870;27;20420;-70
2022/06/21 01:02:35;;;;;;;2.03;1.93;;;11.80;99.90;;;;;;5137028;27;20497;-69
2022/06/21 01:05:27;;;;;;;0.50;0.50;;;11.70;99.90;;;;;;5135287;27;20454;-69
2022/06/21 01:08:19;;;;;;;0.50;0.50;;;11.70;99.90;;;;;;5134785;27;20428;-68
2022/06/21 01:11:12;;;;;;;0.60;0.60;;;11.70;99.90;;;;;;5134751;27;20556;-67
2022/06/21 01:14:01;;;;;;;1.00;0.90;;;11.70;99.90;;;;;;5138587;27;21092;-68
2022/06/21 01:16:50;;;;;;;0.60;0.60;;;11.60;99.90;;;;;;5137790;27;20928;-69
2022/06/21 01:19:42;;;;;;;0.50;0.50;;;11.60;99.90;;;;;;5134499;27;20448;-68
2022/06/21 01:22:39;;;;;;;0.70;0.67;;;11.60;99.90;;;;;;5136132;27;20476;-69
2022/06/21 01:25:39;;;;;;;0.70;0.70;;;11.60;99.90;;;;;;5134162;27;20774;-69
2022/06/21 01:28:28;;;;;;;0.77;0.77;;;11.60;99.90;;;;;;5133246;27;20508;-69
2022/06/21 01:31:16;;;;;;;1.90;1.00;;;11.60;99.90;;;;;;5134906;27;21031;-71
2022/06/21 01:34:10;;;;;;;0.53;0.53;;;11.50;99.90;;;;;;5134287;27;20441;-70
2022/06/21 01:37:06;;;;;;;0.50;0.50;;;11.50;99.90;;;;;;5135297;27;20440;-69
2022/06/21 01:40:01;;;;;;;1.47;1.33;;;11.50;99.90;;;;;;5133776;27;20420;-67
2022/06/21 01:42:53;;;;;;;0.40;0.40;;;11.50;99.90;;;;;;5133690;27;20489;-72
2022/06/21 01:45:47;;;;;;;0.50;0.50;;;11.40;99.90;;;;;;5134717;27;20417;-69
2022/06/21 01:48:39;;;;;;;0.60;0.60;;;11.40;99.90;;;;;;5134127;27;20628;-69
2022/06/21 01:51:34;;;;;;;0.50;0.50;;;11.40;99.90;;;;;;5133209;27;20975;-69
2022/06/21 01:54:25;;;;;;;0.83;0.83;;;11.40;99.90;;;;;;5133514;27;20428;-68
2022/06/21 01:57:15;;;;;;;1.27;0.80;;;11.40;99.90;;;;;;5126329;27;20438;-69
2022/06/21 02:00:06;;;;;;;0.50;0.50;;;11.30;99.90;;;;;;5114592;27;20489;-68
2022/06/21 02:03:00;;;;;;;0.50;0.50;;;11.30;99.90;;;;;;5113982;28;20445;-69
2022/06/21 02:06:01;;;;;;;0.50;0.50;;;11.30;99.90;;;;;;5113964;28;20506;-67
2022/06/21 02:08:53;;;;;;;0.70;0.70;;;11.30;99.90;;;;;;5113877;28;20418;-69
2022/06/21 02:11:45;;;;;;;0.47;0.47;;;11.30;99.90;;;;;;5113716;28;20416;-68
2022/06/21 02:14:38;;;;;;;0.63;0.63;;;11.30;99.90;;;;;;5113743;28;20418;-71
2022/06/21 02:17:30;;;;;;;0.50;0.50;;;11.20;99.90;;;;;;5114312;28;20474;-70
2022/06/21 02:20:25;;;;;;;0.90;0.90;;;11.30;99.90;;;;;;5113334;28;20471;-70
2022/06/21 02:23:15;;;;;;;0.50;0.50;;;11.20;99.90;;;;;;5114199;28;20448;-68
2022/06/21 02:26:04;;;;;;;0.50;0.50;;;11.20;99.90;;;;;;5113353;28;20455;-69
2022/06/21 02:28:52;;;;;;;0.70;0.70;;;11.20;99.90;;;;;;5112864;28;20414;-68
2022/06/21 02:31:40;;;;;;;0.70;0.70;;;11.20;99.90;;;;;;5112719;28;20464;-70
2022/06/21 02:34:39;;;;;;;0.93;0.83;;;11.20;99.90;;;;;;5113230;28;20425;-69
2022/06/21 02:37:30;;;;;;;0.50;0.50;;;11.20;99.90;;;;;;5113568;28;20434;-69
2022/06/21 02:40:22;;;;;;;0.40;0.40;;;11.20;99.90;;;;;;5113032;28;20424;-70
2022/06/21 02:43:15;;;;;;;0.60;0.60;;;11.20;99.90;;;;;;5113054;28;20484;-68
2022/06/21 02:46:08;;;;;;;9.30;2.33;;;11.10;99.90;;;;;;5113028;28;20414;-69
2022/06/21 02:49:02;;;;;;;0.70;0.70;;;11.10;99.90;;;;;;5113223;28;20468;-68
2022/06/21 02:51:54;;;;;;;0.50;0.50;;;11.10;99.90;;;;;;5112347;28;20461;-69
2022/06/21 02:54:50;;;;;;;0.63;0.63;;;11.10;99.90;;;;;;5120209;28;20793;-68
2022/06/21 02:57:44;;;;;;;0.93;0.93;;;11.10;99.90;;;;;;5114710;28;20425;-70
2022/06/21 03:00:32;;;;;;;0.50;0.50;;;11.10;99.90;;;;;;5113148;28;20828;-70
2022/06/21 03:03:23;;;;;;;0.50;0.50;;;11.10;99.90;;;;;;5112582;28;20445;-69
2022/06/21 03:06:15;;;;;;;0.80;0.80;;;11.10;99.90;;;;;;5112717;28;20428;-67
2022/06/21 03:09:07;;;;;;;0.40;0.40;;;11.10;99.90;;;;;;5112684;28;20421;-68
2022/06/21 03:12:03;;;;;;;0.50;0.50;;;11.10;99.90;;;;;;5112718;28;20511;-70
2022/06/21 03:14:55;;;;;;;1.30;1.20;;;11.10;99.90;;;;;;5112685;28;20440;-68
2022/06/21 03:17:50;;;;;;;0.50;0.50;;;11.10;99.90;;;;;;5112878;28;20429;-68
2022/06/21 03:20:40;;;;;;;1.10;1.07;;;11.10;99.90;;;;;;5112496;28;20410;-68
2022/06/21 03:23:29;;;;;;;0.50;0.50;;;11.10;99.90;;;;;;5112284;28;20449;-69
2022/06/21 03:26:17;;;;;;;0.43;0.43;;;11.10;99.90;;;;;;5111563;28;20780;-69
2022/06/21 03:29:07;;;;;;;0.50;0.50;;;11.10;99.90;;;;;;5111765;28;20852;-69
2022/06/21 03:31:55;;;;;;;0.73;0.73;;;11.20;99.90;;;;;;5111039;28;20457;-69
2022/06/21 03:34:45;;;;;;;0.50;0.50;;;11.20;99.90;;;;;;5111279;28;20425;-70
2022/06/21 03:37:35;;;;;;;0.50;0.50;;;11.20;99.90;;;;;;5111356;28;20428;-70
2022/06/21 03:43:38;;;;;;;0.40;0.40;;;11.20;99.90;;;;;;5112738;28;20992;-69
2022/06/21 03:46:33;;;;;;;0.70;0.70;;;11.30;99.90;;;;;;5111990;28;20425;-70
2022/06/21 03:49:29;;;;;;;0.80;0.80;;;11.40;99.90;;;;;;5111839;28;20421;-68
2022/06/21 03:55:37;;;;;;;0.40;0.40;;;11.70;99.90;;;;;;5113926;28;20425;-69
2022/06/21 03:58:44;;;;;;;0.50;0.50;;;11.80;99.90;;;;;;5116421;28;20432;-69
2022/06/21 04:01:38;;;;;;;1.17;0.70;;;11.90;99.90;;;;;;5117060;28;20435;-69
2022/06/21 04:04:39;;;;;;;0.40;0.40;;;12.00;99.90;;;;;;5117459;28;20660;-69
2022/06/21 04:07:34;;;;;;;0.50;0.50;;;12.10;99.90;;;;;;5118342;28;20436;-69
2022/06/21 04:10:28;;;;;;;0.60;0.60;;;12.20;99.90;;;;;;5122590;28;20491;-69
2022/06/21 04:13:21;;;;;;;0.50;0.50;;;12.20;99.90;;;;;;5122858;28;20468;-69
2022/06/21 04:16:15;;;;;;;1.27;0.97;;;12.30;99.90;;;;;;5123340;28;20425;-67
2022/06/21 04:19:11;;;;;;;0.53;0.53;;;12.30;99.90;;;;;;5119756;28;20417;-68
2022/06/21 04:22:06;;;;;;;0.50;0.50;;;12.30;99.90;;;;;;5120110;28;20418;-69
2022/06/21 04:24:58;;;;;;;0.50;0.50;;;12.30;99.90;;;;;;5122248;28;20948;-69
2022/06/21 04:27:53;;;;;;;0.50;0.50;;;12.30;99.90;;;;;;5120448;28;20425;-69
2022/06/21 04:30:47;;;;;;;2.13;1.03;;;12.40;99.90;;;;;;5116284;28;20886;-68
2022/06/21 04:33:40;;;;;;;0.73;0.73;;;12.50;99.90;;;;;;5116153;28;20467;-70
2022/06/21 04:36:35;;;;;;;0.50;0.50;;;12.60;99.90;;;;;;5115307;28;20970;-69
2022/06/21 04:39:28;;;;;;;0.50;0.50;;;12.70;99.90;;;;;;5115695;28;20798;-69
2022/06/21 04:42:21;;;;;;;0.47;0.47;;;12.70;99.90;;;;;;5116334;28;20434;-68
2022/06/21 04:45:17;;;;;;;0.80;0.80;;;12.80;99.90;;;;;;5110898;28;20429;-69
2022/06/21 04:48:18;;;;;;;0.40;0.40;;;12.70;99.90;;;;;;5116509;28;20453;-68
2022/06/21 04:51:12;;;;;;;0.50;0.50;;;12.80;99.90;;;;;;5115491;28;20463;-68
2022/06/21 04:54:04;;;;;;;0.93;0.93;;;12.90;99.90;;;;;;5115809;28;20600;-70
2022/06/21 04:57:03;;;;;;;0.50;0.50;;;13.10;99.90;;;;;;5122418;28;20425;-70
2022/06/21 04:59:55;;;;;;;1.37;1.13;;;13.10;99.90;;;;;;5115791;28;20421;-69
2022/06/21 05:02:47;;;;;;;4.83;1.77;;;13.10;99.90;;;;;;5115217;28;20444;-68
2022/06/21 05:05:38;;;;;;;1.03;0.90;;;13.20;99.90;;;;;;5114543;28;20425;-69
2022/06/21 05:08:26;;;;;;;0.50;0.50;;;13.20;99.90;;;;;;5114125;28;20426;-70
2022/06/21 05:11:16;;;;;;;0.97;0.90;;;13.20;99.90;;;;;;5115330;28;20876;-69
2022/06/21 05:14:04;;;;;;;0.50;0.50;;;13.20;99.90;;;;;;5115091;28;20453;-68
2022/06/21 05:16:52;;;;;;;0.77;0.77;;;13.30;99.90;;;;;;5115122;28;20453;-68
2022/06/21 05:19:45;;;;;;;0.70;0.70;;;13.30;99.90;;;;;;5113712;28;20421;-69
2022/06/21 05:22:36;;;;;;;0.50;0.50;;;13.40;99.90;;;;;;5114954;28;20434;-68
2022/06/21 05:25:30;;;;;;;0.50;0.50;;;13.40;99.90;;;;;;5115113;28;20425;-68
2022/06/21 05:28:26;;;;;;;1.40;1.30;;;13.60;99.90;;;;;;5119110;28;20421;-70
2022/06/21 05:31:20;;;;;;;0.83;0.83;;;13.60;99.90;;;;;;5123914;28;20460;-68
2022/06/21 05:34:15;;;;;;;1.00;1.00;;;13.60;99.90;;;;;;5123325;28;20437;-69
2022/06/21 05:37:13;;;;;;;3.63;1.40;;;13.80;99.90;;;;;;5131093;27;20453;-68
2022/06/21 05:40:10;;;;;;;1.20;1.10;;;13.90;99.90;;;;;;5130186;27;20468;-68
2022/06/21 05:42:59;;;;;;;0.73;0.70;;;13.90;99.90;;;;;;5124554;28;21010;-69
2022/06/21 05:45:54;;;;;;;0.60;0.60;;;13.70;99.90;;;;;;5121580;28;20424;-69
2022/06/21 05:48:46;;;;;;;0.50;0.50;;;13.80;99.90;;;;;;5124294;28;20784;-69
2022/06/21 05:51:35;;;;;;;0.77;0.77;;;13.90;99.90;;;;;;5124726;28;20469;-68
2022/06/21 05:54:29;;;;;;;0.63;0.60;;;14.00;99.90;;;;;;5127598;27;20428;-69
2022/06/21 05:57:22;;;;;;;1.03;1.03;;;14.30;99.90;;;;;;5130397;27;20448;-67
2022/06/21 06:00:25;;;;;;;0.47;0.47;;;14.20;99.90;;;;;;5136256;27;20417;-69
2022/06/21 06:03:21;;;;;;;1.27;1.00;;;14.00;99.90;;;;;;5128722;27;20456;-68
2022/06/21 06:06:13;;;;;;;1.10;0.97;;;13.90;99.90;;;;;;5123387;27;20921;-69
2022/06/21 06:09:06;;;;;;;0.83;0.83;;;13.90;99.90;;;;;;5120074;27;20731;-71
2022/06/21 06:11:58;;;;;;;1.33;0.70;;;13.80;99.90;;;;;;5135573;27;20455;-70
2022/06/21 06:14:50;;;;;;;1.33;1.23;;;13.70;99.90;;;;;;5135627;27;20429;-70
2022/06/21 06:17:43;;;;;;;0.40;0.40;;;13.70;99.90;;;;;;5142144;27;20498;-68
2022/06/21 06:20:37;;;;;;;0.93;0.87;;;13.70;99.90;;;;;;5152864;27;20484;-68
2022/06/21 06:23:31;;;;;;;2.70;1.27;;;13.60;99.90;;;;;;5142723;27;20443;-70
2022/06/21 06:26:22;;;;;;;0.83;0.83;;;13.70;99.90;;;;;;5132900;27;20441;-70
2022/06/21 06:29:18;;;;;;;1.10;1.10;;;13.70;99.90;;;;;;5133632;27;21131;-68
2022/06/21 06:32:15;;;;;;;0.90;0.87;;;13.70;99.90;;;;;;5137366;27;20455;-70
2022/06/21 06:35:10;;;;;;;1.70;1.33;;;13.70;99.90;;;;;;5154032;27;20837;-68
2022/06/21 06:37:59;;;;;;;5.00;2.30;;;13.80;99.90;;;;;;5124793;27;20416;-71
2022/06/21 06:40:51;;;;;;;1.00;0.77;;;13.80;99.90;;;;;;5145385;27;20428;-69
2022/06/21 06:43:46;;;;;;;1.33;1.33;;;13.90;99.90;;;;;;5152880;27;20462;-69
2022/06/21 06:46:36;;;;;;;2.00;1.40;;;14.00;99.90;;;;;;5145570;27;20424;-70
2022/06/21 06:49:34;;;;;;;0.40;0.40;;;14.20;99.90;;;;;;5153128;27;20439;-68
2022/06/21 06:52:27;;;;;;;0.40;0.40;;;14.30;99.90;;;;;;5151926;27;20503;-70
2022/06/21 06:55:26;;;;;;;0.60;0.60;;;14.40;99.90;;;;;;5135769;27;20799;-68
2022/06/21 06:58:39;;;;;;;1.43;1.33;;;13.50;99.90;;;;;;5132914;27;20461;-69
2022/06/21 07:01:49;;;;;;;1.20;1.10;;;14.60;99.90;;;;;;5138609;27;20425;-70
2022/06/21 07:04:43;;;;;;;0.90;0.87;;;14.70;99.90;;;;;;5116270;28;20787;-70
2022/06/21 07:07:41;;;;;;;0.40;0.40;;;14.80;99.90;;;;;;5130806;27;21151;-70
2022/06/21 07:10:30;;;;;;;0.50;0.50;;;14.90;99.90;;;;;;5133440;27;20425;-69
2022/06/21 07:13:18;;;;;;;1.80;0.83;;;15.10;99.90;;;;;;5142436;27;21008;-69
2022/06/21 07:16:12;;;;;;;0.50;0.50;;;15.20;99.90;;;;;;5150836;22;20598;-65
2022/06/21 07:19:03;;;;;;;3.67;2.40;;;15.30;99.90;;;;;;5097908;28;20426;-65
2022/06/21 07:21:51;;;;;;;14.43;2.10;;;15.40;99.90;;;;;;5080941;28;20602;-65
2022/06/21 07:24:40;;;;;;;0.40;0.40;;;15.60;99.90;;;;;;5090382;28;20431;-65
2022/06/21 07:27:31;;;;;;;0.43;0.43;;;15.60;99.90;;;;;;5097102;28;20434;-65
2022/06/21 07:30:26;;;;;;;0.50;0.50;;;15.60;99.90;;;;;;5077548;28;20812;-65
2022/06/21 07:33:20;;;;;;;0.60;0.60;;;15.70;99.90;;;;;;5060515;28;20452;-65
2022/06/21 07:36:12;;;;;;;0.40;0.40;;;15.80;99.90;;;;;;5076107;28;20225;-65
2022/06/21 07:39:05;;;;;;;0.50;0.50;;;15.80;99.90;;;;;;5072310;28;20685;-65
2022/06/21 07:42:07;;;;;;;0.40;0.40;;;15.80;99.90;;;;;;5079116;28;20439;-65
2022/06/21 07:45:02;;;;;;;0.50;0.50;;;15.90;99.90;;;;;;5079941;28;20927;-65
2022/06/21 07:47:58;;;;;;;1.87;1.43;;;16.00;99.90;;;;;;5085814;28;20420;-65
2022/06/21 07:50:49;;;;;;;0.40;0.40;;;16.20;99.90;;;;;;5070127;28;20436;-65
2022/06/21 07:53:42;;;;;;;1.20;0.80;;;16.30;99.90;;;;;;5075841;28;20471;-65
2022/06/21 07:56:37;;;;;;;0.50;0.50;;;16.40;99.90;;;;;;5073710;28;20439;-65
2022/06/21 07:59:28;;;;;;;0.57;0.57;;;16.40;99.90;;;;;;5068281;28;20502;-65
2022/06/21 08:08:51;;;;;;;0.40;0.40;;;16.70;99.90;;;;;;5075576;28;20209;-65
2022/06/21 08:11:41;;;;;;;0.57;0.57;;;16.80;99.90;;;;;;5078691;28;20676;-65
2022/06/21 08:14:32;;;;;;;0.80;0.80;;;16.80;99.90;;;;;;5072864;28;20216;-65
2022/06/21 08:17:29;;;;;;;0.57;0.57;;;16.90;99.90;;;;;;5064991;28;20593;-65
2022/06/21 08:20:23;;;;;;;0.50;0.50;;;16.90;99.90;;;;;;5069638;28;20204;-65
2022/06/21 08:23:17;;;;;;;0.40;0.40;;;17.00;99.90;;;;;;5060709;28;20218;-65
2022/06/21 08:26:13;;;;;;;0.40;0.40;;;17.10;99.90;;;;;;5072935;28;20216;-65
2022/06/21 08:29:05;;;;;;;0.50;0.50;;;17.10;99.90;;;;;;5073132;28;20201;-65
2022/06/21 08:31:59;;;;;;;0.60;0.60;;;17.20;99.90;;;;;;5067983;28;20212;-65
2022/06/21 08:34:52;;;;;;;0.40;0.40;;;17.20;99.90;;;;;;5076612;28;20208;-66
2022/06/21 08:37:45;;;;;;;0.40;0.40;;;17.30;99.90;;;;;;5091271;28;20610;-65
2022/06/21 08:41:06;;;;;;;1.67;1.07;;;17.40;99.90;;;;;;5092464;28;20196;-65
2022/06/21 08:44:16;;;;;;;0.40;0.40;;;17.50;99.90;;;;;;5075953;28;20193;-65
2022/06/21 08:47:59;;;;;;;0.50;0.50;;;17.60;99.90;;;;;;5065310;28;20216;-65
2022/06/21 08:51:09;;;;;;;0.40;0.40;;;17.70;99.90;;;;;;5002278;28;20214;-66
2022/06/21 08:54:05;;;;;;;0.60;0.60;;;17.90;99.90;;;;;;4988865;28;20234;-66
2022/06/21 08:57:00;;;;;;;0.40;0.40;;;17.80;99.90;;;;;;5088023;28;20232;-66
2022/06/21 09:00:02;;;;;;;0.40;0.40;;;17.80;99.90;;;;;;5088303;28;20200;-66
2022/06/21 09:03:07;;;;;;;0.82;0.65;;;17.90;99.90;;;;;;5082362;28;20691;-66
2022/06/21 09:06:19;;;;;;;0.50;0.50;;;18.00;99.90;;;;;;5073292;28;20688;-65
2022/06/21 09:09:44;;;;;;;0.60;0.50;;;18.00;99.90;;;;;;5073666;28;20207;-65
2022/06/21 09:12:44;;;;;;;2.63;2.00;;;18.00;99.90;;;;;;5077499;28;20205;-66
2022/06/21 09:15:42;;;;;;;0.40;0.40;;;18.20;99.90;;;;;;5061172;28;20220;-66
2022/06/21 09:18:44;;;;;;;0.40;0.40;;;18.30;99.90;;;;;;5069363;28;20219;-67
2022/06/21 09:21:46;;;;;;;0.40;0.40;;;18.30;99.90;;;;;;5071514;28;20196;-67
2022/06/21 09:24:40;;;;;;;0.47;0.47;;;18.50;99.90;;;;;;5076179;28;20196;-66
2022/06/21 09:27:35;;;;;;;0.40;0.40;;;18.50;99.90;;;;;;5068837;28;20586;-66
2022/06/21 09:30:31;;;;;;;1.60;1.13;;;18.70;99.90;;;;;;5070121;28;20204;-67
2022/06/21 09:33:24;;;;;;;0.40;0.40;;;18.70;99.90;;;;;;5076915;28;20213;-66
2022/06/21 09:36:21;;;;;;;0.40;0.40;;;18.90;99.90;;;;;;5080533;28;20220;-66
2022/06/21 09:39:20;;;;;;;0.40;0.40;;;18.90;99.90;;;;;;5058303;28;20209;-67
2022/06/21 09:42:18;;;;;;;1.25;0.80;;;19.00;99.90;;;;;;5092301;28;20204;-67
2022/06/21 09:45:19;;;;;;;1.05;0.70;;;18.90;99.90;;;;;;5093880;28;20222;-67
2022/06/21 09:48:15;;;;;;;0.45;0.45;;;19.10;99.90;;;;;;5059270;28;20204;-66
2022/06/21 09:51:10;;;;;;;0.40;0.40;;;19.20;99.90;;;;;;5077283;28;20566;-66
2022/06/21 09:54:16;;;;;;;1.17;0.65;;;19.20;99.90;;;;;;5076031;28;20217;-67
2022/06/21 09:57:13;;;;;;;0.50;0.50;;;19.20;99.90;;;;;;5070168;28;20233;-67
2022/06/21 10:00:09;;;;;;;0.57;0.57;;;19.20;99.90;;;;;;5053379;28;20205;-68
2022/06/21 10:03:11;;;;;;;0.45;0.45;;;19.30;99.90;;;;;;5057459;28;20239;-66
2022/06/21 10:06:08;;;;;;;0.47;0.47;;;19.40;99.90;;;;;;5076848;28;20633;-67
2022/06/21 10:09:14;;;;;;;0.50;0.50;;;19.50;99.90;;;;;;5079195;28;20201;-67
2022/06/21 10:12:11;;;;;;;0.70;0.50;;;19.50;99.90;;;;;;5083354;28;20569;-66
2022/06/21 10:15:30;;;;;;;0.60;0.40;;;19.60;99.90;;;;;;5073443;28;20225;-66
2022/06/21 10:18:56;;;;;;;0.60;0.60;;;19.70;99.90;;;;;;5073624;28;20326;-67
2022/06/21 10:21:58;;;;;;;0.40;0.40;;;19.90;99.90;;;;;;5080919;28;20204;-67
2022/06/21 10:25:10;;;;;;;0.40;0.40;;;19.90;99.90;;;;;;5089044;28;20216;-68
2022/06/21 10:28:15;;;;;;;1.00;0.88;;;20.00;99.90;;;;;;5090161;28;20204;-67
2022/06/21 10:31:17;;;;;;;1.63;1.30;;;20.00;99.90;;;;;;5070601;28;20201;-68
2022/06/21 10:34:34;;;;;;;0.77;0.77;;;20.10;99.90;;;;;;5085579;28;20213;-68
2022/06/21 10:37:36;;;;;;;0.47;0.47;;;20.10;99.90;;;;;;5076183;28;20220;-67
2022/06/21 10:40:48;;;;;;;0.75;0.75;;;20.20;99.90;;;;;;5070129;28;20202;-66
2022/06/21 10:44:04;;;;;;;4.05;1.15;;;20.20;99.90;;;;;;5072650;28;20196;-66
2022/06/21 10:46:59;;;;;;;0.43;0.43;;;20.30;99.90;;;;;;5070767;28;20597;-67
2022/06/21 10:50:03;;;;;;;1.40;0.50;;;20.30;99.90;;;;;;5064081;28;20204;-67
2022/06/21 10:53:39;;;;;;;1.38;0.60;;;20.40;99.90;;;;;;5070381;28;20561;-66
2022/06/21 11:03:43;;;;;;;0.40;0.40;;;20.40;99.90;;;;;;5064769;28;20204;-67
2022/06/21 11:06:44;;;;;;;0.40;0.40;;;20.50;99.90;;;;;;5071096;28;20227;-67
2022/06/21 11:09:41;;;;;;;1.80;1.70;;;20.60;99.90;;;;;;5073518;28;20581;-66
2022/06/21 11:12:56;;;;;;;0.88;0.88;;;20.70;99.90;;;;;;5073585;28;20205;-67
2022/06/21 11:15:57;;;;;;;0.40;0.40;;;20.70;99.90;;;;;;5073459;28;20225;-68
2022/06/21 11:18:56;;;;;;;0.40;0.40;;;20.70;99.90;;;;;;5055512;28;20201;-67
2022/06/21 11:21:57;;;;;;;0.40;0.40;;;20.80;99.90;;;;;;5069868;28;20552;-66
2022/06/21 11:24:58;;;;;;;0.60;0.60;;;20.80;99.90;;;;;;5066976;28;20203;-66
2022/06/21 11:27:58;;;;;;;0.40;0.40;;;20.90;99.60;;;;;;5053296;28;20215;-66
2022/06/21 11:30:53;;;;;;;0.40;0.40;;;21.00;99.10;;;;;;5069138;28;20206;-67
2022/06/21 11:33:51;;;;;;;0.77;0.63;;;21.00;98.60;;;;;;5073478;28;20265;-67
2022/06/21 11:36:49;;;;;;;0.40;0.40;;;21.10;97.20;;;;;;5073479;28;20574;-67
2022/06/21 11:39:45;;;;;;;0.40;0.40;;;21.10;97.60;;;;;;5063882;28;20197;-67
2022/06/21 11:42:41;;;;;;;0.40;0.40;;;21.20;98.20;;;;;;5060993;28;20616;-67
2022/06/21 11:45:47;;;;;;;0.43;0.43;;;21.40;98.70;;;;;;5058959;28;20228;-67
2022/06/21 11:48:56;;;;;;;5.78;1.48;;;21.50;95.50;;;;;;5053290;28;20212;-66
2022/06/21 11:52:29;;;;;;;0.40;0.40;;;21.40;96.50;;;;;;5052523;28;20236;-66
2022/06/21 11:55:33;;;;;;;0.40;0.40;;;21.50;95.50;;;;;;5054556;28;20307;-67
2022/06/21 11:58:29;;;;;;;0.57;0.57;;;21.60;95.60;;;;;;5069423;28;20295;-67
2022/06/21 12:01:27;;;;;;;0.40;0.40;;;21.70;95.60;;;;;;5086151;28;20196;-67
2022/06/21 12:04:30;;;;;;;0.40;0.40;;;21.70;95.10;;;;;;5068790;28;20445;-66
2022/06/21 12:07:26;;;;;;;0.40;0.40;;;21.70;95.00;;;;;;5067591;28;20220;-67
2022/06/21 12:10:20;;;;;;;0.68;0.68;;;21.80;95.40;;;;;;5067296;28;20204;-67
2022/06/21 12:13:22;;;;;;;0.40;0.40;;;21.90;93.30;;;;;;5062910;28;20200;-67
2022/06/21 12:16:37;;;;;;;0.50;0.50;;;21.90;93.80;;;;;;5057594;28;20308;-67
2022/06/21 12:19:33;;;;;;;1.38;0.88;;;22.00;93.70;;;;;;5071502;28;20774;-66
2022/06/21 12:22:33;;;;;;;0.45;0.45;;;22.00;92.90;;;;;;5069454;28;20207;-67
2022/06/21 12:25:24;;;;;;;0.40;0.40;;;22.00;92.70;;;;;;5061268;28;20212;-68
2022/06/21 12:28:24;;;;;;;0.50;0.50;;;22.00;92.50;;;;;;5068719;28;20223;-66
2022/06/21 12:31:27;;;;;;;1.05;1.05;;;22.10;92.80;;;;;;5073958;28;20216;-66
2022/06/21 12:34:31;;;;;;;0.40;0.40;;;22.00;91.90;;;;;;5072298;28;20196;-66
2022/06/21 12:37:27;;;;;;;0.50;0.50;;;22.10;92.60;;;;;;5069936;28;20239;-67
2022/06/21 12:40:30;;;;;;;0.40;0.40;;;22.50;92.30;;;;;;5064817;28;20197;-67
2022/06/21 12:43:39;;;;;;;0.50;0.50;;;23.50;92.40;;;;;;5070684;28;20196;-68
2022/06/21 12:46:40;;;;;;;0.40;0.40;;;25.60;89.10;;;;;;5068526;28;20208;-67
2022/06/21 12:50:30;;;;;;;0.93;0.82;;;28.20;82.50;;;;;;5068864;28;20280;-68
2022/06/21 12:53:47;;;;;;;0.63;0.63;;;31.20;72.70;;;;;;5066192;28;20201;-68
2022/06/21 12:56:49;;;;;;;0.63;0.50;;;33.70;61.10;;;;;;5068085;28;20232;-68
2022/06/21 13:00:15;;;;;;;0.40;0.40;;;35.30;54.40;;;;;;5070140;28;20200;-67
2022/06/21 13:03:46;;;;;;;0.40;0.40;;;35.50;51.30;;;;;;5069263;28;20198;-68
2022/06/21 13:07:01;;;;;;;0.47;0.47;;;35.00;51.10;;;;;;5048707;28;20221;-68
2022/06/21 13:10:15;;;;;;;0.40;0.40;;;35.20;50.50;;;;;;5066593;28;20197;-68
2022/06/21 13:13:35;;;;;;;0.40;0.40;;;35.50;48.90;;;;;;5068441;28;20200;-68
2022/06/21 13:16:40;;;;;;;0.40;0.40;;;35.30;49.00;;;;;;5065513;28;20696;-69
2022/06/21 13:19:52;;;;;;;0.40;0.40;;;36.20;48.30;;;;;;5066525;28;20204;-68
2022/06/21 13:22:59;;;;;;;0.40;0.40;;;36.90;46.20;;;;;;5068988;28;20200;-68
2022/06/21 13:25:56;;;;;;;0.55;0.55;;;36.70;45.70;;;;;;5064970;28;20212;-69
2022/06/21 13:29:13;;;;;;;0.40;0.40;;;37.90;45.20;;;;;;5053565;28;20204;-66
2022/06/21 13:32:09;;;;;;;0.80;0.80;;;38.90;42.70;;;;;;5049627;28;20212;-66
2022/06/21 13:35:19;;;;;;;0.45;0.45;;;39.90;42.90;;;;;;5071456;28;20214;-67
2022/06/21 13:38:26;;;;;;;0.40;0.40;;;41.00;40.30;;;;;;5070789;28;20235;-66
2022/06/21 13:44:38;;;;;;;0.40;0.40;;;40.80;38.10;;;;;;5052006;28;20216;-66
2022/06/21 13:47:36;;;;;;;0.40;0.40;;;40.20;38.80;;;;;;5051686;28;20201;-67
2022/06/21 13:50:34;;;;;;;0.50;0.50;;;40.50;38.00;;;;;;5052466;28;20299;-66
2022/06/21 13:53:30;;;;;;;0.50;0.50;;;41.30;37.40;;;;;;5051490;28;20226;-66
2022/06/21 13:56:26;;;;;;;0.50;0.50;;;40.70;37.90;;;;;;5052291;28;20367;-65
2022/06/21 13:59:22;;;;;;;0.40;0.40;;;40.50;38.00;;;;;;5080547;28;20693;-65
2022/06/21 14:02:27;;;;;;;0.40;0.40;;;41.10;37.40;;;;;;5052037;28;20205;-65
2022/06/21 14:05:23;;;;;;;0.50;0.50;;;40.60;37.30;;;;;;5057627;28;20224;-66
2022/06/21 14:08:23;;;;;;;0.75;0.75;;;41.20;37.10;;;;;;5072444;28;20204;-67
2022/06/21 14:11:25;;;;;;;0.40;0.40;;;42.00;36.40;;;;;;5071736;28;20201;-67
2022/06/21 14:14:23;;;;;;;0.40;0.40;;;42.60;35.90;;;;;;5072538;28;20199;-67
2022/06/21 14:17:24;;;;;;;0.40;0.40;;;42.80;35.60;;;;;;5071837;28;20220;-66
2022/06/21 14:20:22;;;;;;;0.40;0.40;;;41.90;35.60;;;;;;5072261;28;20209;-67
2022/06/21 14:23:23;;;;;;;0.40;0.40;;;41.80;36.20;;;;;;5072221;28;20192;-66
2022/06/21 14:26:17;;;;;;;0.40;0.40;;;40.60;36.10;;;;;;5072180;28;20225;-66
2022/06/21 14:29:15;;;;;;;0.50;0.50;;;40.60;37.00;;;;;;5071853;28;20204;-67
2022/06/21 14:32:14;;;;;;;0.40;0.40;;;40.70;36.70;;;;;;5069983;28;20200;-65
2022/06/21 14:35:11;;;;;;;0.40;0.40;;;40.50;35.40;;;;;;5068817;28;20189;-66
2022/06/21 14:38:06;;;;;;;0.40;0.40;;;40.60;36.10;;;;;;5051997;28;20200;-65
2022/06/21 14:41:06;;;;;;;4.97;4.68;;;40.70;36.20;;;;;;5060175;28;20193;-65
2022/06/21 14:44:03;;;;;;;0.50;0.50;;;41.20;36.20;;;;;;5066366;28;20278;-66
2022/06/21 14:47:00;;;;;;;1.52;0.68;;;41.60;35.80;;;;;;5062337;28;20231;-67
2022/06/21 14:49:58;;;;;;;0.60;0.50;;;41.20;35.20;;;;;;5057305;28;20262;-65
2022/06/21 14:53:16;;;;;;;0.68;0.60;;;40.30;35.40;;;;;;5066436;28;20201;-68
2022/06/21 14:56:21;;;;;;;0.82;0.82;;;38.90;36.20;;;;;;5060232;28;20216;-66
2022/06/21 14:59:46;;;;;;;0.40;0.40;;;39.20;36.70;;;;;;5056631;28;20207;-66
2022/06/21 15:02:49;;;;;;;0.40;0.40;;;40.50;36.50;;;;;;5062462;28;20311;-66
2022/06/21 15:05:54;;;;;;;0.40;0.40;;;43.10;34.30;;;;;;5065799;28;20775;-66
2022/06/21 15:08:50;;;;;;;0.50;0.50;;;43.90;33.30;;;;;;5057086;28;20197;-66
2022/06/21 15:11:56;;;;;;;0.40;0.40;;;44.10;33.50;;;;;;5064351;28;20201;-67
2022/06/21 15:14:48;;;;;;;0.50;0.50;;;43.40;33.40;;;;;;5072021;28;20212;-66
2022/06/21 15:17:41;;;;;;;0.40;0.40;;;42.80;32.40;;;;;;5070558;28;20609;-66
2022/06/21 15:20:34;;;;;;;0.40;0.40;;;41.30;33.30;;;;;;5069825;28;20693;-66
2022/06/21 15:23:29;;;;;;;4.10;3.80;;;41.30;33.80;;;;;;5071741;28;20232;-66
2022/06/21 15:26:26;;;;;;;0.50;0.50;;;40.80;33.60;;;;;;5059998;28;20262;-66
2022/06/21 15:29:21;;;;;;;0.50;0.50;;;42.00;33.30;;;;;;5061201;28;20211;-66
2022/06/21 15:32:14;;;;;;;0.40;0.40;;;43.00;32.80;;;;;;5070069;28;20235;-66
2022/06/21 15:35:03;;;;;;;0.73;0.73;;;41.10;33.00;;;;;;5069221;28;20207;-66
2022/06/21 15:37:57;;;;;;;0.50;0.50;;;40.20;34.20;;;;;;5068697;28;20201;-66
2022/06/21 15:40:49;;;;;;;0.50;0.50;;;40.50;33.30;;;;;;5067765;28;20266;-66
2022/06/21 15:43:39;;;;;;;0.40;0.40;;;39.50;33.80;;;;;;5068380;28;20584;-66
2022/06/21 15:46:31;;;;;;;0.40;0.40;;;38.70;35.00;;;;;;5068277;28;20732;-66
2022/06/21 15:52:30;;;;;;;0.40;0.40;;;36.50;36.70;;;;;;5071066;28;20208;-66